createdAt,value
2022-11-23T00:01:34.202Z,80.30
2022-11-23T00:03:38.403Z,80.40
2022-11-23T00:05:41.250Z,80.60
2022-11-23T00:07:44.190Z,80.50
2022-11-23T00:09:47.072Z,80.50
2022-11-23T00:11:49.921Z,80.50
2022-11-23T00:13:53.300Z,80.60
2022-11-23T00:15:56.110Z,80.60
2022-11-23T00:18:00.036Z,80.50
2022-11-23T00:20:04.665Z,80.70
2022-11-23T00:22:07.501Z,80.80
2022-11-23T00:24:12.945Z,80.80
2022-11-23T00:26:16.939Z,81.10
2022-11-23T00:28:19.788Z,80.80
2022-11-23T00:30:22.632Z,80.70
2022-11-23T00:32:25.529Z,80.50
2022-11-23T00:34:28.349Z,80.60
2022-11-23T00:36:32.586Z,80.50
2022-11-23T00:38:35.507Z,80.30
2022-11-23T00:40:38.468Z,80.50
2022-11-23T00:42:41.293Z,80.50
2022-11-23T00:44:44.110Z,80.50
2022-11-23T00:46:46.924Z,80.50
2022-11-23T00:48:51.853Z,80.80
2022-11-23T00:50:54.788Z,80.90
2022-11-23T00:52:58.999Z,81.00
2022-11-23T00:55:01.811Z,81.00
2022-11-23T00:57:04.685Z,81.20
2022-11-23T00:59:07.685Z,81.30
2022-11-23T01:01:13.136Z,81.50
2022-11-23T01:03:16.656Z,81.80
2022-11-23T01:05:19.578Z,81.70
2022-11-23T01:07:22.580Z,81.80
2022-11-23T01:09:27.400Z,82.10
2022-11-23T01:11:32.698Z,82.00
2022-11-23T01:13:36.023Z,82.10
2022-11-23T01:15:38.857Z,82.90
2022-11-23T01:17:41.703Z,82.30
2022-11-23T01:19:44.579Z,82.30
2022-11-23T01:21:47.617Z,82.30
2022-11-23T01:23:50.442Z,82.40
2022-11-23T01:25:57.175Z,82.10
2022-11-23T01:28:00.185Z,82.20
2022-11-23T01:30:03.029Z,82.10
2022-11-23T01:32:06.027Z,81.90
2022-11-23T01:34:09.006Z,81.80
2022-11-23T01:36:13.222Z,81.90
2022-11-23T01:38:18.379Z,81.90
2022-11-23T01:40:21.565Z,82.00
2022-11-23T01:42:41.267Z,81.60
2022-11-23T01:44:44.126Z,82.50
2022-11-23T01:46:46.986Z,82.40
2022-11-23T01:48:53.270Z,82.30
2022-11-23T01:50:57.483Z,82.20
2022-11-23T01:53:00.550Z,81.90
2022-11-23T01:55:08.323Z,82.20
2022-11-23T01:57:16.295Z,82.00
2022-11-23T01:59:22.834Z,82.20
2022-11-23T02:01:25.711Z,82.30
2022-11-23T02:03:30.365Z,82.40
2022-11-23T02:05:38.398Z,82.00
2022-11-23T02:07:42.698Z,82.20
2022-11-23T02:09:47.170Z,82.00
2022-11-23T02:11:50.161Z,82.00
2022-11-23T02:13:53.201Z,81.90
2022-11-23T02:15:58.637Z,82.30
2022-11-23T02:18:04.006Z,82.00
2022-11-23T02:20:10.775Z,82.00
2022-11-23T02:22:21.141Z,82.50
2022-11-23T02:24:29.466Z,82.40
2022-11-23T02:26:35.541Z,82.40
2022-11-23T02:28:42.955Z,82.30
2022-11-23T02:30:48.308Z,82.30
2022-11-23T02:32:51.156Z,82.10
2022-11-23T02:34:53.941Z,82.00
2022-11-23T02:36:58.191Z,82.70
2022-11-23T02:39:02.639Z,83.40
2022-11-23T02:41:05.578Z,84.10
2022-11-23T02:43:09.740Z,84.00
2022-11-23T02:45:19.527Z,83.60
2022-11-23T02:47:22.424Z,83.20
2022-11-23T02:49:25.273Z,82.90
2022-11-23T02:51:28.078Z,83.10
2022-11-23T02:53:30.839Z,83.30
2022-11-23T02:55:33.877Z,83.20
2022-11-23T02:57:36.743Z,82.90
2022-11-23T02:59:40.966Z,83.00
2022-11-23T03:01:43.793Z,83.00
2022-11-23T03:03:46.594Z,83.00
2022-11-23T03:05:49.335Z,82.90
2022-11-23T03:07:52.197Z,82.80
2022-11-23T03:09:54.990Z,82.60
2022-11-23T03:11:57.825Z,82.60
2022-11-23T03:14:01.003Z,82.60
2022-11-23T03:16:05.480Z,82.30
2022-11-23T03:18:08.316Z,82.30
2022-11-23T03:20:11.820Z,82.40
2022-11-23T03:22:14.648Z,82.20
2022-11-23T03:24:17.604Z,82.30
2022-11-23T03:26:20.488Z,82.40
2022-11-23T03:28:23.302Z,82.40
2022-11-23T03:30:26.141Z,82.40
2022-11-23T03:32:30.264Z,82.50
2022-11-23T03:34:33.049Z,82.60
2022-11-23T03:36:35.915Z,82.70
2022-11-23T03:38:38.736Z,82.90
2022-11-23T03:40:41.588Z,83.10
2022-11-23T03:42:44.355Z,83.30
2022-11-23T03:44:47.136Z,83.60
2022-11-23T03:46:51.350Z,83.70
2022-11-23T03:48:55.475Z,83.90
2022-11-23T03:50:58.296Z,83.80
2022-11-23T03:53:01.112Z,83.60
2022-11-23T03:55:04.033Z,83.40
2022-11-23T03:57:06.854Z,83.40
2022-11-23T03:59:09.764Z,83.40
2022-11-23T04:01:12.675Z,83.40
2022-11-23T04:03:15.771Z,83.50
2022-11-23T04:05:19.988Z,83.50
2022-11-23T04:07:22.800Z,83.40
2022-11-23T04:09:25.588Z,83.60
2022-11-23T04:11:28.402Z,83.40
2022-11-23T04:13:31.186Z,83.00
2022-11-23T04:15:34.008Z,83.30
2022-11-23T04:17:36.930Z,83.50
2022-11-23T04:19:39.736Z,83.30
2022-11-23T04:21:43.857Z,83.10
2022-11-23T04:23:46.637Z,83.40
2022-11-23T04:25:49.437Z,83.40
2022-11-23T04:27:52.259Z,83.40
2022-11-23T04:29:55.132Z,83.30
2022-11-23T04:31:57.993Z,83.00
2022-11-23T04:34:00.769Z,82.90
2022-11-23T04:36:03.561Z,83.60
2022-11-23T04:38:07.775Z,83.50
2022-11-23T04:40:11.589Z,83.50
2022-11-23T04:42:14.491Z,83.60
2022-11-23T04:44:17.326Z,83.30
2022-11-23T04:46:20.119Z,83.40
2022-11-23T04:48:22.896Z,83.60
2022-11-23T04:50:25.717Z,83.50
2022-11-23T04:52:28.552Z,83.30
2022-11-23T04:54:32.687Z,83.40
2022-11-23T04:56:35.578Z,83.40
2022-11-23T04:58:38.428Z,83.00
2022-11-23T05:00:41.322Z,83.30
2022-11-23T05:02:44.239Z,83.40
2022-11-23T05:04:47.104Z,83.40
2022-11-23T05:06:49.899Z,83.30
2022-11-23T05:08:52.959Z,83.30
2022-11-23T05:10:57.216Z,83.40
2022-11-23T05:13:00.087Z,83.30
2022-11-23T05:15:02.896Z,83.30
2022-11-23T05:17:05.664Z,83.30
2022-11-23T05:19:08.535Z,83.40
2022-11-23T05:21:11.348Z,83.40
2022-11-23T05:23:14.252Z,83.30
2022-11-23T05:25:17.220Z,83.20
2022-11-23T05:27:21.362Z,83.50
2022-11-23T05:29:24.213Z,82.70
2022-11-23T05:31:27.015Z,82.50
2022-11-23T05:33:29.856Z,82.90
2022-11-23T05:35:32.712Z,82.90
2022-11-23T05:37:35.577Z,82.50
2022-11-23T05:39:38.362Z,82.60
2022-11-23T05:41:41.238Z,82.90
2022-11-23T05:43:45.664Z,82.50
2022-11-23T05:45:48.507Z,82.40
2022-11-23T05:47:52.317Z,82.70
2022-11-23T05:49:55.147Z,82.70
2022-11-23T05:51:58.381Z,82.40
2022-11-23T05:54:03.015Z,82.30
2022-11-23T05:56:06.372Z,83.00
2022-11-23T05:58:09.187Z,83.40
2022-11-23T06:00:14.292Z,83.40
2022-11-23T06:02:17.351Z,83.30
2022-11-23T06:04:20.169Z,83.00
2022-11-23T06:06:22.984Z,82.90
2022-11-23T06:08:25.898Z,82.80
2022-11-23T06:10:28.787Z,82.70
2022-11-23T06:13:35.722Z,82.60
2022-11-23T06:15:39.901Z,82.70
2022-11-23T06:17:42.755Z,82.80
2022-11-23T06:19:45.560Z,82.90
2022-11-23T06:21:50.540Z,82.90
2022-11-23T06:23:53.588Z,82.70
2022-11-23T06:25:56.471Z,83.10
2022-11-23T06:28:00.912Z,83.00
2022-11-23T06:30:03.753Z,82.70
2022-11-23T06:32:08.756Z,82.90
2022-11-23T06:34:11.769Z,82.90
2022-11-23T06:36:15.473Z,83.20
2022-11-23T06:38:18.282Z,83.60
2022-11-23T06:40:21.541Z,83.60
2022-11-23T06:42:38.442Z,83.30
2022-11-23T06:44:42.034Z,83.10
2022-11-23T06:46:44.861Z,83.10
2022-11-23T06:48:49.280Z,82.90
2022-11-23T06:50:52.070Z,82.60
2022-11-23T06:52:58.100Z,83.10
2022-11-23T06:55:00.948Z,83.70
2022-11-23T06:57:03.749Z,83.80
2022-11-23T06:59:06.575Z,83.50
2022-11-23T07:01:10.780Z,83.40
2022-11-23T07:03:22.872Z,83.40
2022-11-23T07:05:27.158Z,83.40
2022-11-23T07:07:30.031Z,83.20
2022-11-23T07:09:33.066Z,83.00
2022-11-23T07:11:36.443Z,83.00
2022-11-23T07:13:39.727Z,83.10
2022-11-23T07:15:43.509Z,83.00
2022-11-23T07:17:46.318Z,83.00
2022-11-23T07:19:49.148Z,83.10
2022-11-23T07:21:53.412Z,83.00
2022-11-23T07:23:56.257Z,83.00
2022-11-23T07:25:59.034Z,83.10
2022-11-23T07:28:03.785Z,83.00
2022-11-23T07:30:07.851Z,83.00
2022-11-23T07:32:10.811Z,83.40
2022-11-23T07:34:13.628Z,82.70
2022-11-23T07:36:16.553Z,82.90
2022-11-23T07:38:20.706Z,82.60
2022-11-23T07:40:23.493Z,82.80
2022-11-23T07:42:38.213Z,83.20
2022-11-23T07:44:45.837Z,83.30
2022-11-23T07:46:48.663Z,83.10
2022-11-23T07:48:51.724Z,83.10
2022-11-23T07:50:55.886Z,83.80
2022-11-23T07:52:59.054Z,83.10
2022-11-23T07:55:03.255Z,83.00
2022-11-23T07:57:06.059Z,83.20
2022-11-23T07:59:08.885Z,83.50
2022-11-23T08:01:17.864Z,83.40
2022-11-23T08:03:29.015Z,83.50
2022-11-23T08:05:33.284Z,84.00
2022-11-23T08:07:36.162Z,83.20
2022-11-23T08:09:39.361Z,83.00
2022-11-23T08:11:43.587Z,82.90
2022-11-23T08:13:46.478Z,82.80
2022-11-23T08:15:54.829Z,82.50
2022-11-23T08:17:58.825Z,82.20
2022-11-23T08:20:01.590Z,82.30
2022-11-23T08:22:04.398Z,82.20
2022-11-23T08:24:07.563Z,81.90
2022-11-23T08:26:13.645Z,82.00
2022-11-23T08:28:18.710Z,82.20
2022-11-23T08:30:21.726Z,82.50
2022-11-23T08:32:24.629Z,82.80
2022-11-23T08:34:27.631Z,82.80
2022-11-23T08:36:30.495Z,83.00
2022-11-23T08:38:33.558Z,83.90
2022-11-23T08:40:37.070Z,83.10
2022-11-23T08:42:39.866Z,83.00
2022-11-23T08:44:43.992Z,83.00
2022-11-23T08:46:47.046Z,82.80
2022-11-23T08:48:49.925Z,82.50
2022-11-23T08:50:53.127Z,82.30
2022-11-23T08:52:57.017Z,82.00
2022-11-23T08:54:59.852Z,81.90
2022-11-23T08:57:02.651Z,82.20
2022-11-23T08:59:05.518Z,82.90
2022-11-23T09:01:11.373Z,82.30
2022-11-23T09:03:14.222Z,82.00
2022-11-23T09:05:17.250Z,82.20
2022-11-23T09:07:20.115Z,81.70
2022-11-23T09:09:23.032Z,81.50
2022-11-23T09:11:26.341Z,81.30
2022-11-23T09:13:29.605Z,81.40
2022-11-23T09:15:32.439Z,81.30
2022-11-23T09:17:37.286Z,81.40
2022-11-23T09:19:40.119Z,81.30
2022-11-23T09:21:43.240Z,81.60
2022-11-23T09:23:46.077Z,81.30
2022-11-23T09:25:50.118Z,81.20
2022-11-23T09:27:58.595Z,81.10
2022-11-23T09:30:01.387Z,81.00
2022-11-23T09:32:04.414Z,81.20
2022-11-23T09:34:08.583Z,81.10
2022-11-23T09:36:11.597Z,81.10
2022-11-23T09:38:14.498Z,81.00
2022-11-23T09:40:18.153Z,81.10
2022-11-23T09:42:43.118Z,80.90
2022-11-23T09:45:15.234Z,80.80
2022-11-23T09:47:32.918Z,81.00
2022-11-23T09:49:44.638Z,80.90
2022-11-23T09:51:48.308Z,80.90
2022-11-23T09:53:56.561Z,80.90
2022-11-23T09:55:59.698Z,80.50
2022-11-23T09:58:05.986Z,80.80
2022-11-23T10:00:19.754Z,80.80
2022-11-23T10:02:24.391Z,80.60
2022-11-23T10:04:30.719Z,80.50
2022-11-23T10:06:39.784Z,80.60
2022-11-23T10:08:49.390Z,80.30
2022-11-23T10:11:01.352Z,80.10
2022-11-23T10:13:26.256Z,80.20
2022-11-23T10:15:34.614Z,80.40
2022-11-23T10:18:03.348Z,80.30
2022-11-23T10:20:22.978Z,80.10
2022-11-23T10:22:35.849Z,80.20
2022-11-23T10:24:44.017Z,79.70
2022-11-23T10:26:49.499Z,80.00
2022-11-23T10:28:52.599Z,79.70
2022-11-23T10:31:08.689Z,79.70
2022-11-23T10:33:24.183Z,79.10
2022-11-23T10:35:30.801Z,79.50
2022-11-23T10:37:35.302Z,79.00
2022-11-23T10:39:38.144Z,79.40
2022-11-23T10:41:40.986Z,79.00
2022-11-23T10:43:48.420Z,79.00
2022-11-23T10:45:54.701Z,78.70
2022-11-23T10:48:00.984Z,77.10
2022-11-23T10:50:04.061Z,77.80
2022-11-23T10:52:26.709Z,78.20
2022-11-23T10:54:34.335Z,78.30
2022-11-23T10:56:47.343Z,77.50
2022-11-23T10:58:50.152Z,77.40
2022-11-23T11:01:00.228Z,77.60
2022-11-23T11:03:23.788Z,77.40
2022-11-23T11:06:14.917Z,77.60
2022-11-23T11:07:57.468Z,77.00
2022-11-23T11:10:03.534Z,77.70
2022-11-23T11:12:06.727Z,77.60
2022-11-23T11:14:16.818Z,77.40
2022-11-23T11:16:22.312Z,77.20
2022-11-23T11:18:29.076Z,76.90
2022-11-23T11:20:35.588Z,77.60
2022-11-23T11:22:44.683Z,77.30
2022-11-23T11:24:50.436Z,77.40
2022-11-23T11:26:59.956Z,77.10
2022-11-23T11:29:05.672Z,77.10
2022-11-23T11:31:47.368Z,76.80
2022-11-23T11:33:56.758Z,77.20
2022-11-23T11:36:03.854Z,77.10
2022-11-23T11:38:16.161Z,76.80
2022-11-23T11:40:24.634Z,76.70
2022-11-23T11:42:35.515Z,76.90
2022-11-23T11:44:41.673Z,76.50
2022-11-23T11:46:50.006Z,76.60
2022-11-23T11:48:56.233Z,75.50
2022-11-23T11:51:04.403Z,76.30
2022-11-23T11:53:10.113Z,76.10
2022-11-23T11:55:16.838Z,76.40
2022-11-23T11:57:22.788Z,76.20
2022-11-23T11:59:31.902Z,76.10
2022-11-23T12:01:39.001Z,76.40
2022-11-23T12:03:45.070Z,76.50
2022-11-23T12:05:50.853Z,76.30
2022-11-23T12:08:00.884Z,76.80
2022-11-23T12:10:10.847Z,76.40
2022-11-23T12:12:17.660Z,76.60
2022-11-23T12:14:20.668Z,76.40
2022-11-23T12:16:31.735Z,76.00
2022-11-23T12:19:05.552Z,75.90
2022-11-23T12:21:23.922Z,76.00
2022-11-23T12:23:38.155Z,76.60
2022-11-23T12:25:47.057Z,76.00
2022-11-23T12:28:01.435Z,75.80
2022-11-23T12:30:19.068Z,75.50
2022-11-23T12:32:32.519Z,75.40
2022-11-23T12:34:48.100Z,75.50
2022-11-23T12:37:09.557Z,75.90
2022-11-23T12:39:30.782Z,75.80
2022-11-23T12:41:43.950Z,75.80
2022-11-23T12:43:57.566Z,75.60
2022-11-23T12:46:15.609Z,74.80
2022-11-23T12:48:38.631Z,74.40
2022-11-23T12:50:46.341Z,74.00
2022-11-23T12:53:03.494Z,74.10
2022-11-23T12:55:20.203Z,73.90
2022-11-23T12:57:29.600Z,74.10
2022-11-23T12:59:42.411Z,73.80
2022-11-23T13:01:50.416Z,74.30
2022-11-23T13:04:23.979Z,74.10
2022-11-23T13:07:20.728Z,73.90
2022-11-23T13:09:40.660Z,74.10
2022-11-23T13:11:57.714Z,73.90
2022-11-23T13:14:13.703Z,73.80
2022-11-23T13:16:27.909Z,74.00
2022-11-23T13:18:46.191Z,74.00
2022-11-23T13:21:08.288Z,74.10
2022-11-23T13:23:11.673Z,74.00
2022-11-23T13:25:26.104Z,73.90
2022-11-23T13:27:43.859Z,73.70
2022-11-23T13:29:58.703Z,73.70
2022-11-23T13:32:31.331Z,74.80
2022-11-23T13:34:48.706Z,74.90
2022-11-23T13:37:17.573Z,74.30
2022-11-23T13:39:57.424Z,73.30
2022-11-23T13:42:02.434Z,72.30
2022-11-23T13:44:12.839Z,72.10
2022-11-23T13:46:24.868Z,71.60
2022-11-23T13:48:58.186Z,71.90
2022-11-23T13:51:00.870Z,72.00
2022-11-23T13:53:05.930Z,72.50
2022-11-23T13:55:21.859Z,72.30
2022-11-23T13:57:25.305Z,72.10
2022-11-23T13:59:32.345Z,72.70
2022-11-23T14:02:17.899Z,73.00
2022-11-23T14:04:22.492Z,72.50
2022-11-23T14:06:44.385Z,73.10
2022-11-23T14:08:51.045Z,73.50
2022-11-23T14:10:55.661Z,74.00
2022-11-23T14:13:03.357Z,74.10
2022-11-23T14:15:13.485Z,74.10
2022-11-23T14:17:47.675Z,74.30
2022-11-23T14:20:26.228Z,74.70
2022-11-23T14:22:44.658Z,74.40
2022-11-23T14:25:24.939Z,74.80
2022-11-23T14:27:47.236Z,75.00
2022-11-23T14:30:05.417Z,74.90
2022-11-23T14:32:27.498Z,75.00
2022-11-23T14:34:37.036Z,75.20
2022-11-23T14:36:47.448Z,75.30
2022-11-23T14:39:27.348Z,75.30
2022-11-23T14:41:36.131Z,75.60
2022-11-23T14:43:43.001Z,75.60
2022-11-23T14:45:46.875Z,75.50
2022-11-23T14:47:50.347Z,75.50
2022-11-23T14:49:53.204Z,75.60
2022-11-23T14:51:56.212Z,75.50
2022-11-23T14:54:03.510Z,75.70
2022-11-23T14:56:07.114Z,75.50
2022-11-23T14:58:17.181Z,75.80
2022-11-23T15:00:31.350Z,76.10
2022-11-23T15:02:37.386Z,76.00
2022-11-23T15:04:54.275Z,76.10
2022-11-23T15:07:01.591Z,76.20
2022-11-23T15:09:10.223Z,76.30
2022-11-23T15:11:17.742Z,76.20
2022-11-23T15:13:24.209Z,76.40
2022-11-23T15:15:30.031Z,76.30
2022-11-23T15:17:33.906Z,76.30
2022-11-23T15:19:36.689Z,76.20
2022-11-23T15:21:39.620Z,76.20
2022-11-23T15:23:45.562Z,76.20
2022-11-23T15:25:55.710Z,76.20
2022-11-23T15:27:58.654Z,76.10
2022-11-23T15:30:02.910Z,76.10
2022-11-23T15:32:30.584Z,76.30
2022-11-23T15:34:35.378Z,76.30
2022-11-23T15:36:40.605Z,76.40
2022-11-23T15:38:43.739Z,76.30
2022-11-23T15:40:49.392Z,76.30
2022-11-23T15:42:52.549Z,76.10
2022-11-23T15:44:55.937Z,76.20
2022-11-23T15:47:04.040Z,76.00
2022-11-23T15:49:07.069Z,76.20
2022-11-23T15:51:20.635Z,76.10
2022-11-23T15:53:26.913Z,76.10
2022-11-23T15:55:31.671Z,76.00
2022-11-23T15:57:34.860Z,76.90
2022-11-23T15:59:42.990Z,77.00
2022-11-23T16:01:46.184Z,76.90
2022-11-23T16:03:55.690Z,76.90
2022-11-23T16:06:29.291Z,76.90
2022-11-23T16:08:36.438Z,76.80
2022-11-23T16:10:55.133Z,76.90
2022-11-23T16:12:59.894Z,77.00
2022-11-23T16:15:37.605Z,76.90
2022-11-23T16:17:45.455Z,76.70
2022-11-23T16:19:50.954Z,76.70
2022-11-23T16:22:01.946Z,76.60
2022-11-23T16:24:05.687Z,76.90
2022-11-23T16:26:08.661Z,77.00
2022-11-23T16:28:18.803Z,77.10
2022-11-23T16:30:25.392Z,77.10
2022-11-23T16:32:31.077Z,77.00
2022-11-23T16:34:34.374Z,76.90
2022-11-23T16:36:38.843Z,76.90
2022-11-23T16:38:41.714Z,76.90
2022-11-23T16:40:45.680Z,76.60
2022-11-23T16:42:52.800Z,76.80
2022-11-23T16:44:55.615Z,76.90
2022-11-23T16:47:19.547Z,76.80
2022-11-23T16:49:25.030Z,77.00
2022-11-23T16:51:29.628Z,77.10
2022-11-23T16:54:00.340Z,77.10
2022-11-23T16:55:59.267Z,77.00
2022-11-23T16:58:02.087Z,76.90
2022-11-23T17:00:07.312Z,76.90
2022-11-23T17:02:13.900Z,77.10
2022-11-23T17:04:17.064Z,76.90
2022-11-23T17:06:22.923Z,76.90
2022-11-23T17:08:25.808Z,77.00
2022-11-23T17:10:30.110Z,77.10
2022-11-23T17:12:33.014Z,77.60
2022-11-23T17:14:39.862Z,77.50
2022-11-23T17:16:43.891Z,77.30
2022-11-23T17:18:47.053Z,77.20
2022-11-23T17:20:50.132Z,77.70
2022-11-23T17:22:53.068Z,77.80
2022-11-23T17:24:55.909Z,78.00
2022-11-23T17:27:00.436Z,78.30
2022-11-23T17:29:05.351Z,78.20
2022-11-23T17:31:10.713Z,78.30
2022-11-23T17:33:13.880Z,78.60
2022-11-23T17:35:16.911Z,78.30
2022-11-23T17:37:22.386Z,78.20
2022-11-23T17:39:26.277Z,78.30
2022-11-23T17:41:29.184Z,77.90
2022-11-23T17:43:33.383Z,77.60
2022-11-23T17:45:36.184Z,77.60
2022-11-23T17:47:40.262Z,77.60
2022-11-23T17:49:43.132Z,78.10
2022-11-23T17:51:46.016Z,78.30
2022-11-23T17:53:48.950Z,78.40
2022-11-23T17:55:51.781Z,78.30
2022-11-23T17:57:54.894Z,78.00
2022-11-23T18:00:03.385Z,77.60
2022-11-23T18:02:06.867Z,77.60
2022-11-23T18:04:09.799Z,77.40
2022-11-23T18:06:15.183Z,77.20
2022-11-23T18:08:18.172Z,77.50
2022-11-23T18:10:21.187Z,77.50
2022-11-23T18:12:24.020Z,77.60
2022-11-23T18:14:28.969Z,77.60
2022-11-23T18:16:33.209Z,77.60
2022-11-23T18:18:36.616Z,77.60
2022-11-23T18:20:39.475Z,77.50
2022-11-23T18:22:42.375Z,77.40
2022-11-23T18:24:45.167Z,77.30
2022-11-23T18:26:48.039Z,77.20
2022-11-23T18:28:51.175Z,77.00
2022-11-23T18:30:54.271Z,77.20
2022-11-23T18:32:58.482Z,77.50
2022-11-23T18:35:01.296Z,77.50
2022-11-23T18:37:04.099Z,78.00
2022-11-23T18:39:07.146Z,78.30
2022-11-23T18:41:09.944Z,78.30
2022-11-23T18:43:12.726Z,77.80
2022-11-23T18:45:15.894Z,77.90
2022-11-23T18:47:19.171Z,78.50
2022-11-23T18:49:23.350Z,79.10
2022-11-23T18:51:26.506Z,78.80
2022-11-23T18:53:29.385Z,78.40
2022-11-23T18:55:32.190Z,77.80
2022-11-23T18:57:35.052Z,77.80
2022-11-23T19:02:00.779Z,78.30
2022-11-23T19:04:03.797Z,78.40
2022-11-23T19:06:08.836Z,79.10
2022-11-23T19:08:11.648Z,79.40
2022-11-23T19:10:14.876Z,79.90
2022-11-23T19:12:17.844Z,80.10
2022-11-23T19:14:20.859Z,80.40
2022-11-23T19:16:26.274Z,80.50
2022-11-23T19:18:29.153Z,80.10
2022-11-23T19:20:32.123Z,80.00
2022-11-23T19:22:36.652Z,79.90
2022-11-23T19:24:40.157Z,79.60
2022-11-23T19:26:43.016Z,79.60
2022-11-23T19:28:46.006Z,79.60
2022-11-23T19:30:48.864Z,79.40
2022-11-23T19:32:51.744Z,78.90
2022-11-23T19:34:55.293Z,78.30
2022-11-23T19:36:58.168Z,78.10
2022-11-23T19:39:02.954Z,78.50
2022-11-23T19:41:06.021Z,78.80
2022-11-23T19:43:09.011Z,78.90
2022-11-23T19:45:11.951Z,79.40
2022-11-23T19:47:19.914Z,79.70
2022-11-23T19:49:25.268Z,79.50
2022-11-23T19:51:28.888Z,79.40
2022-11-23T19:53:32.885Z,79.00
2022-11-23T19:55:37.096Z,78.80
2022-11-23T19:57:39.970Z,78.20
2022-11-23T19:59:42.780Z,77.60
2022-11-23T20:01:45.671Z,77.80
2022-11-23T20:03:50.631Z,78.30
2022-11-23T20:05:56.087Z,78.40
2022-11-23T20:08:01.811Z,78.20
2022-11-23T20:10:05.197Z,78.70
2022-11-23T20:12:09.429Z,78.60
2022-11-23T20:14:13.090Z,78.60
2022-11-23T20:16:17.687Z,78.60
2022-11-23T20:18:22.611Z,78.90
2022-11-23T20:20:28.587Z,78.90
2022-11-23T20:22:32.718Z,78.60
2022-11-23T20:24:36.256Z,78.60
2022-11-23T20:26:39.710Z,78.30
2022-11-23T20:28:44.058Z,78.30
2022-11-23T20:30:50.229Z,78.30
2022-11-23T20:32:53.739Z,78.30
2022-11-23T20:34:56.606Z,78.50
2022-11-23T20:36:59.963Z,78.80
2022-11-23T20:39:05.244Z,79.50
2022-11-23T20:41:15.922Z,79.40
2022-11-23T20:43:18.759Z,79.50
2022-11-23T20:45:23.030Z,79.30
2022-11-23T20:47:28.013Z,79.40
2022-11-23T20:49:31.443Z,79.40
2022-11-23T20:51:36.915Z,79.80
2022-11-23T20:53:39.764Z,79.70
2022-11-23T20:55:42.579Z,79.40
2022-11-23T20:57:45.454Z,79.10
2022-11-23T20:59:48.339Z,78.80
2022-11-23T21:01:53.097Z,79.60
2022-11-23T21:03:58.319Z,79.50
2022-11-23T21:06:05.867Z,79.70
2022-11-23T21:08:20.712Z,80.00
2022-11-23T21:10:44.480Z,79.70
2022-11-23T21:13:05.084Z,80.10
2022-11-23T21:15:08.932Z,80.00
2022-11-23T21:17:14.855Z,79.70
2022-11-23T21:19:17.820Z,79.30
2022-11-23T21:21:20.737Z,79.20
2022-11-23T21:23:23.721Z,79.30
2022-11-23T21:25:26.670Z,79.10
2022-11-23T21:27:29.649Z,79.30
2022-11-23T21:29:33.165Z,79.50
2022-11-23T21:31:36.125Z,80.10
2022-11-23T21:33:40.277Z,80.30
2022-11-23T21:35:43.116Z,80.40
2022-11-23T21:37:45.961Z,80.20
2022-11-23T21:39:52.907Z,79.90
2022-11-23T21:41:56.110Z,79.70
2022-11-23T21:43:59.037Z,79.80
2022-11-23T21:46:02.477Z,79.80
2022-11-23T21:48:05.680Z,79.80
2022-11-23T21:50:10.742Z,80.00
2022-11-23T21:52:13.560Z,80.30
2022-11-23T21:54:16.620Z,80.10
2022-11-23T21:56:19.678Z,79.90
2022-11-23T21:58:22.513Z,79.80
2022-11-23T22:00:31.031Z,80.00
2022-11-23T22:02:34.284Z,80.10
2022-11-23T22:04:38.775Z,80.00
2022-11-23T22:06:44.379Z,79.70
2022-11-23T22:08:49.159Z,80.00
2022-11-23T22:10:52.007Z,80.30
2022-11-23T22:12:56.032Z,80.10
2022-11-23T22:14:58.903Z,80.30
2022-11-23T22:17:01.674Z,80.60
2022-11-23T22:19:06.234Z,80.50
2022-11-23T22:21:09.364Z,80.40
2022-11-23T22:23:13.930Z,80.30
2022-11-23T22:25:16.923Z,80.30
2022-11-23T22:27:19.799Z,80.30
2022-11-23T22:29:22.659Z,80.20
2022-11-23T22:31:27.695Z,80.10
2022-11-23T22:33:31.143Z,80.00
2022-11-23T22:35:34.311Z,80.00
2022-11-23T22:37:38.034Z,80.10
2022-11-23T22:39:42.300Z,79.90
2022-11-23T22:41:45.119Z,80.10
2022-11-23T22:43:48.511Z,80.10
2022-11-23T22:45:51.482Z,79.90
2022-11-23T22:47:54.346Z,80.00
2022-11-23T22:49:57.212Z,80.40
2022-11-23T22:52:00.047Z,80.50
2022-11-23T22:54:03.331Z,80.60
2022-11-23T22:56:09.144Z,80.50
2022-11-23T22:58:12.103Z,80.40
2022-11-23T23:00:15.302Z,80.40
2022-11-23T23:02:18.239Z,79.90
2022-11-23T23:04:21.085Z,80.40
2022-11-23T23:06:25.788Z,80.90
2022-11-23T23:08:29.337Z,80.80
2022-11-23T23:10:32.223Z,80.80
2022-11-23T23:12:36.557Z,80.90
2022-11-23T23:14:39.424Z,81.10
2022-11-23T23:16:42.268Z,81.60
2022-11-23T23:18:45.168Z,81.60
2022-11-23T23:20:48.031Z,81.30
2022-11-23T23:22:50.851Z,81.30
2022-11-23T23:24:53.772Z,81.00
2022-11-23T23:26:56.644Z,80.90
2022-11-23T23:29:01.605Z,81.10
2022-11-23T23:31:06.169Z,81.20
2022-11-23T23:33:09.006Z,80.90
2022-11-23T23:35:12.105Z,81.10
2022-11-23T23:37:14.943Z,81.30
2022-11-23T23:39:17.735Z,81.00
2022-11-23T23:41:20.891Z,81.10
2022-11-23T23:43:24.066Z,81.40
2022-11-23T23:45:28.302Z,81.80
2022-11-23T23:47:32.195Z,81.70
2022-11-23T23:49:35.354Z,82.00
2022-11-23T23:51:38.202Z,81.90
2022-11-23T23:53:41.690Z,81.70
2022-11-23T23:55:44.491Z,81.70
2022-11-23T23:57:47.315Z,81.80
2022-11-23T23:59:50.184Z,81.70
